Time;durP1;ratioP1;P1;durP2;ratioP2;P2;SDS_P1;SDS_P2;PMS_P1;PMS_P2;Temp;Humidity;BMP_temperature;BMP_pressure;BME280_temperature;BME280_humidity;BME280_pressure;Samples;Min_cycle;Max_cycle;Signal;HPM_P1;HPM_P2
2022/10/04 00:00:26;;;;;;;1.80;1.02;;;;;;;24.15;45.87;97119.50;5033257;28;20075;-25
2022/10/04 00:02:58;;;;;;;1.52;1.08;;;;;;;24.15;46.12;97125.81;5033199;28;20025;-25
2022/10/04 00:05:25;;;;;;;2.65;1.52;;;;;;;24.17;46.04;97128.06;5033001;28;20501;-25
2022/10/04 00:07:58;;;;;;;2.50;0.93;;;;;;;24.20;46.00;97119.53;5032859;28;20428;-25
2022/10/04 00:10:29;;;;;;;2.85;1.30;;;;;;;24.14;46.17;97120.75;5033159;28;20026;-25
2022/10/04 00:13:01;;;;;;;2.40;1.00;;;;;;;24.13;46.12;97119.25;5032953;28;20397;-25
2022/10/04 00:15:37;;;;;;;3.42;1.33;;;;;;;24.13;46.20;97116.47;5033108;28;20025;-25
2022/10/04 00:18:15;;;;;;;1.80;1.00;;;;;;;24.17;46.01;97117.75;5033106;28;20496;-25
2022/10/04 00:20:47;;;;;;;2.15;1.20;;;;;;;24.10;46.03;97117.50;5032651;28;20029;-25
2022/10/04 00:23:22;;;;;;;1.95;0.98;;;;;;;24.18;45.93;97119.25;5032903;28;20025;-25
2022/10/04 00:25:47;;;;;;;2.10;1.30;;;;;;;24.17;45.81;97122.53;5035269;28;20029;-25
2022/10/04 00:28:15;;;;;;;2.38;1.20;;;;;;;24.16;45.95;97121.78;5035377;28;20025;-25
2022/10/04 00:30:40;;;;;;;2.33;1.02;;;;;;;24.14;45.93;97120.75;5036289;28;20049;-25
2022/10/04 00:33:06;;;;;;;1.38;1.00;;;;;;;24.07;46.35;97112.94;5036342;28;20045;-25
2022/10/04 00:35:32;;;;;;;2.55;1.27;;;;;;;24.13;45.88;97122.00;5036333;28;20033;-25
2022/10/04 00:37:58;;;;;;;3.75;1.20;;;;;;;24.05;46.03;97118.97;5036102;28;20029;-25
2022/10/04 00:40:35;;;;;;;6.40;1.63;;;;;;;24.08;46.12;97122.78;5036333;28;20470;-25
2022/10/04 00:43:04;;;;;;;1.00;0.90;;;;;;;24.10;45.95;97128.56;5036079;28;20029;-25
2022/10/04 00:45:40;;;;;;;1.58;0.88;;;;;;;24.07;46.04;97129.56;5034832;28;20021;-25
2022/10/04 00:48:06;;;;;;;2.17;1.00;;;;;;;24.11;45.93;97133.59;5036020;28;20486;-25
2022/10/04 00:50:40;;;;;;;2.42;1.13;;;;;;;24.06;46.05;97134.34;5036202;28;20028;-25
2022/10/04 00:53:37;;;;;;;2.45;0.88;;;;;;;24.05;46.27;97134.84;5036046;28;20477;-25
2022/10/04 00:56:06;;;;;;;1.65;1.08;;;;;;;24.01;46.15;97132.31;5036096;28;20489;-25
2022/10/04 00:58:43;;;;;;;2.88;1.35;;;;;;;24.01;46.15;97132.31;5036035;28;20021;-25
2022/10/04 01:01:09;;;;;;;1.42;0.93;;;;;;;24.05;46.13;97132.06;5035747;28;20021;-25
2022/10/04 01:03:43;;;;;;;2.25;1.25;;;;;;;24.05;46.18;97126.53;5035881;28;20028;-25
2022/10/04 01:06:11;;;;;;;1.73;0.88;;;;;;;24.02;46.21;97124.75;5035830;28;20044;-25
2022/10/04 01:08:48;;;;;;;1.00;0.80;;;;;;;24.05;46.28;97132.06;5035695;28;20029;-25
2022/10/04 01:11:29;;;;;;;2.05;1.33;;;;;;;24.06;46.03;97125.28;5033952;28;20030;-25
2022/10/04 01:14:20;;;;;;;1.65;0.93;;;;;;;24.04;45.98;97127.78;5033387;28;20474;-25
2022/10/04 01:16:45;;;;;;;2.60;1.30;;;;;;;23.98;46.12;97122.25;5035329;28;20405;-25
2022/10/04 01:19:31;;;;;;;2.33;1.00;;;;;;;23.98;46.22;97119.47;5035425;28;20041;-25
2022/10/04 01:22:39;;;;;;;2.13;1.10;;;;;;;23.99;46.23;97116.19;5035227;28;20084;-25
2022/10/04 01:25:04;;;;;;;2.78;0.85;;;;;;;23.97;46.33;97113.16;5035293;28;20041;-25
2022/10/04 01:27:32;;;;;;;2.95;1.20;;;;;;;23.96;46.10;97122.75;5035341;28;20029;-25
2022/10/04 01:29:59;;;;;;;2.08;1.02;;;;;;;23.96;46.26;97114.44;5035480;28;20037;-25
2022/10/04 01:32:25;;;;;;;2.15;1.02;;;;;;;24.04;46.05;97111.16;5035142;28;20032;-25
2022/10/04 01:34:50;;;;;;;2.47;1.52;;;;;;;23.99;46.08;97107.88;5035203;28;20026;-25
2022/10/04 01:37:16;;;;;;;2.47;1.20;;;;;;;23.92;46.34;97111.13;5033892;28;20025;-25
2022/10/04 01:39:43;;;;;;;2.53;1.10;;;;;;;23.96;46.27;97108.13;5034937;28;20050;-25
2022/10/04 01:42:17;;;;;;;2.55;1.10;;;;;;;23.95;46.48;97112.91;5035146;28;20032;-25
2022/10/04 01:44:48;;;;;;;2.30;1.25;;;;;;;23.98;46.09;97111.88;5033791;28;20466;-25
2022/10/04 01:47:39;;;;;;;2.90;1.27;;;;;;;23.96;46.25;97108.13;5034976;28;20104;-25
2022/10/04 01:50:12;;;;;;;2.47;1.02;;;;;;;23.93;46.14;97114.66;5034168;28;20042;-25
2022/10/04 01:52:47;;;;;;;2.22;1.05;;;;;;;23.92;46.41;97111.13;5034761;28;20025;-25
2022/10/04 01:55:17;;;;;;;1.67;0.95;;;;;;;23.86;46.27;97110.34;5035032;28;20442;-25
2022/10/04 01:57:53;;;;;;;2.72;1.10;;;;;;;23.90;46.40;97107.34;5034695;28;20025;-25
2022/10/04 02:00:21;;;;;;;1.73;1.08;;;;;;;23.94;46.22;97105.09;5034680;28;20047;-25
2022/10/04 02:02:52;;;;;;;2.42;1.05;;;;;;;23.96;46.33;97110.91;5034640;28;20104;-25
2022/10/04 02:05:32;;;;;;;2.58;1.10;;;;;;;23.88;46.47;97099.53;5034488;28;20025;-26
2022/10/04 02:08:04;;;;;;;2.65;1.30;;;;;;;23.87;46.45;97103.56;5034925;28;20036;-25
2022/10/04 02:10:35;;;;;;;2.72;1.10;;;;;;;23.84;46.44;97107.34;5034550;28;20549;-25
2022/10/04 02:13:01;;;;;;;2.63;1.40;;;;;;;23.88;46.40;97105.06;5034653;28;20029;-25
2022/10/04 02:15:28;;;;;;;2.45;1.40;;;;;;;23.86;46.10;97113.13;5034469;28;20084;-25
2022/10/04 02:17:56;;;;;;;2.67;1.30;;;;;;;23.85;46.35;97105.31;5034248;28;20034;-25
2022/10/04 02:20:25;;;;;;;1.23;0.82;;;;;;;23.95;46.09;97107.38;5034319;28;20474;-25
2022/10/04 02:22:58;;;;;;;1.52;1.13;;;;;;;23.87;46.34;97105.56;5032970;28;20021;-25
2022/10/04 02:25:25;;;;;;;;;;;;;;;23.84;46.32;97107.34;5034663;28;20025;-25
2022/10/04 02:27:53;;;;;;;3.33;1.02;;;;;;;23.85;46.23;97108.84;5034060;28;19913;-25
2022/10/04 02:30:19;;;;;;;1.73;1.10;;;;;;;23.89;46.15;97108.59;5034381;28;20061;-25
2022/10/04 02:32:59;;;;;;;1.80;1.40;;;;;;;23.94;46.09;97108.63;5034037;28;20068;-25
2022/10/04 02:35:50;;;;;;;1.85;1.13;;;;;;;23.91;46.15;97101.31;5034232;28;20032;-25
2022/10/04 02:38:22;;;;;;;0.80;0.80;;;;;;;23.86;46.34;97098.53;5033478;28;20096;-25
2022/10/04 02:41:04;;;;;;;1.80;1.00;;;;;;;23.82;46.15;97093.22;5034068;28;20065;-25
2022/10/04 02:43:46;;;;;;;3.45;1.13;;;;;;;23.85;46.31;97097.78;5034075;28;20029;-25
2022/10/04 02:46:41;;;;;;;2.10;0.93;;;;;;;23.78;46.47;97103.78;5033900;28;20040;-25
2022/10/04 02:49:36;;;;;;;2.00;0.93;;;;;;;23.81;46.21;97094.47;5033637;28;20029;-25
2022/10/04 02:52:27;;;;;;;1.13;0.82;;;;;;;23.85;45.93;97097.78;5032411;28;20389;-26
2022/10/04 02:55:03;;;;;;;1.98;1.20;;;;;;;23.79;46.56;97105.28;5033907;28;20091;-25
2022/10/04 02:57:32;;;;;;;2.17;1.00;;;;;;;23.77;46.45;97107.81;5033913;28;20044;-25
2022/10/04 03:00:13;;;;;;;3.53;1.35;;;;;;;23.84;46.14;97101.81;5033835;28;20104;-25
2022/10/04 03:02:39;;;;;;;2.10;1.30;;;;;;;23.73;46.37;97112.84;5033800;28;20120;-25
2022/10/04 03:05:09;;;;;;;2.13;1.05;;;;;;;23.84;46.24;97106.59;5033524;28;20065;-25
2022/10/04 03:07:37;;;;;;;4.85;1.42;;;;;;;23.77;46.27;97107.03;5033666;28;20032;-25
2022/10/04 03:10:08;;;;;;;2.42;1.10;;;;;;;23.84;46.12;97096.25;5033683;28;20067;-25
2022/10/04 03:12:34;;;;;;;2.30;1.00;;;;;;;23.86;46.04;97104.81;5033476;28;20029;-25
2022/10/04 03:14:59;;;;;;;1.73;1.20;;;;;;;23.80;46.12;97109.59;5033283;28;20493;-25
2022/10/04 03:17:25;;;;;;;2.00;1.20;;;;;;;23.74;46.25;97108.78;5033393;28;20060;-25
2022/10/04 03:19:51;;;;;;;1.85;1.00;;;;;;;23.75;46.11;97104.75;5033452;28;20385;-25
2022/10/04 03:22:17;;;;;;;3.67;1.35;;;;;;;23.79;46.00;97110.84;5033645;28;20013;-25
2022/10/04 03:24:49;;;;;;;2.13;1.25;;;;;;;23.73;46.26;97112.09;5033356;28;20035;-25
2022/10/04 03:27:20;;;;;;;1.60;1.20;;;;;;;23.73;46.33;97106.53;5033364;28;20025;-25
2022/10/04 03:29:46;;;;;;;1.70;1.00;;;;;;;23.76;46.07;97114.59;5033175;28;20025;-25
2022/10/04 03:32:16;;;;;;;1.90;0.93;;;;;;;23.71;46.12;97112.56;5033111;28;20029;-25
2022/10/04 03:34:52;;;;;;;2.63;1.02;;;;;;;23.73;46.22;97112.84;5033534;28;20100;-25
2022/10/04 03:37:20;;;;;;;2.20;1.00;;;;;;;23.73;46.35;97110.06;5033228;28;20116;-25
2022/10/04 03:39:48;;;;;;;2.88;1.05;;;;;;;23.73;46.11;97125.94;5033158;28;20054;-25
2022/10/04 03:42:23;;;;;;;3.38;1.25;;;;;;;23.71;46.34;97126.44;5033099;28;20067;-25
2022/10/04 03:44:51;;;;;;;4.50;1.95;;;;;;;23.73;46.17;97118.38;5033519;28;20409;-25
2022/10/04 03:47:30;;;;;;;2.55;1.00;;;;;;;23.56;46.38;97123.06;5033434;28;20421;-25
2022/10/04 03:50:05;;;;;;;2.17;1.10;;;;;;;23.68;45.99;97126.66;5033096;28;20026;-25
2022/10/04 03:52:34;;;;;;;2.72;1.02;;;;;;;23.67;46.18;97125.13;5031698;28;20031;-25
2022/10/04 03:55:02;;;;;;;3.03;1.23;;;;;;;23.68;45.99;97132.94;5033320;28;20036;-25
2022/10/04 03:57:29;;;;;;;2.28;1.25;;;;;;;23.66;45.96;97135.44;5033048;28;20030;-25
2022/10/04 03:59:56;;;;;;;1.40;0.80;;;;;;;23.67;46.04;97127.91;5034003;28;20382;-25
2022/10/04 04:02:42;;;;;;;2.88;1.30;;;;;;;23.64;46.15;97137.97;5037028;28;20018;-25
2022/10/04 04:05:14;;;;;;;2.63;1.27;;;;;;;23.60;45.96;97135.44;5036777;28;20101;-25
2022/10/04 04:07:48;;;;;;;2.13;1.13;;;;;;;23.57;46.37;97132.91;5036674;28;20029;-25
2022/10/04 04:10:27;;;;;;;1.52;1.10;;;;;;;23.64;45.94;97137.97;5036743;28;20508;-25
2022/10/04 04:12:58;;;;;;;1.48;0.98;;;;;;;23.65;46.16;97136.69;5036674;28;20021;-25
2022/10/04 04:15:28;;;;;;;2.13;1.00;;;;;;;23.62;46.19;97140.47;5036961;28;20033;-25
2022/10/04 04:17:54;;;;;;;1.67;1.10;;;;;;;23.57;46.22;97141.97;5036766;28;20378;-25
2022/10/04 04:20:35;;;;;;;2.42;1.00;;;;;;;23.67;45.99;97138.97;5036657;28;20025;-25
2022/10/04 04:23:13;;;;;;;2.10;1.20;;;;;;;23.68;45.96;97135.72;5036568;28;20493;-25
2022/10/04 04:25:53;;;;;;;1.67;0.88;;;;;;;23.56;46.39;97143.22;5036459;28;20036;-25
2022/10/04 04:28:47;;;;;;;3.22;1.30;;;;;;;23.49;46.54;97138.09;5035431;28;20031;-25
2022/10/04 04:32:10;;;;;;;1.77;1.10;;;;;;;23.56;46.15;97148.00;5036233;28;20033;-25
2022/10/04 04:34:49;;;;;;;1.80;1.10;;;;;;;23.62;45.95;97155.06;5034219;28;20508;-25
2022/10/04 04:37:15;;;;;;;2.58;1.30;;;;;;;23.57;46.14;97155.06;5034538;28;20532;-25
2022/10/04 04:39:41;;;;;;;2.15;1.10;;;;;;;23.52;46.27;97155.75;5034046;28;20045;-25
2022/10/04 04:42:13;;;;;;;4.60;1.30;;;;;;;23.53;46.21;97158.03;5034081;28;20029;-25
2022/10/04 04:44:46;;;;;;;2.33;1.10;;;;;;;23.55;46.00;97152.00;5034132;28;20052;-25
2022/10/04 04:47:26;;;;;;;2.10;1.05;;;;;;;23.49;45.96;97148.44;5034273;28;20033;-25
2022/10/04 04:49:52;;;;;;;1.92;1.13;;;;;;;23.56;46.13;97153.53;5034186;28;20026;-25
2022/10/04 04:52:21;;;;;;;2.00;1.10;;;;;;;23.55;46.01;97157.56;5033876;28;20048;-25
2022/10/04 04:54:47;;;;;;;1.80;1.15;;;;;;;23.45;46.53;97151.44;5033958;28;20029;-25
2022/10/04 04:57:16;;;;;;;2.65;1.10;;;;;;;23.47;46.48;97159.25;5033728;28;20030;-25
2022/10/04 04:59:49;;;;;;;2.28;1.17;;;;;;;23.48;46.27;97158.00;5034040;28;20067;-25
2022/10/04 05:02:30;;;;;;;2.97;1.30;;;;;;;23.45;46.23;97165.28;5033866;28;20033;-25
2022/10/04 05:05:22;;;;;;;1.77;1.10;;;;;;;23.48;46.07;97167.06;5035208;28;20094;-25
2022/10/04 05:07:49;;;;;;;2.55;1.00;;;;;;;23.45;46.07;97170.06;5035581;28;20029;-25
2022/10/04 05:10:33;;;;;;;3.58;1.38;;;;;;;23.40;46.50;97177.06;5035831;28;20049;-25
2022/10/04 05:13:00;;;;;;;3.30;1.30;;;;;;;23.39;46.37;97181.06;5035720;28;20029;-25
2022/10/04 05:15:32;;;;;;;3.20;1.60;;;;;;;23.44;46.33;97187.91;5035682;28;20025;-25
2022/10/04 05:17:58;;;;;;;1.65;1.10;;;;;;;23.52;45.88;97180.69;5035749;28;20091;-25
2022/10/04 05:20:24;;;;;;;2.65;1.02;;;;;;;23.50;45.84;97183.16;5035423;28;20029;-25
2022/10/04 05:22:50;;;;;;;2.70;1.40;;;;;;;23.46;45.80;97188.19;5035479;28;20028;-25
2022/10/04 05:25:30;;;;;;;3.03;1.30;;;;;;;23.41;46.29;97186.88;5036032;28;20021;-25
2022/10/04 05:27:56;;;;;;;5.55;1.17;;;;;;;23.37;46.30;97191.16;5035440;28;20021;-25
2022/10/04 05:30:45;;;;;;;3.97;1.38;;;;;;;23.34;46.41;97192.88;5035288;28;20488;-27
2022/10/04 05:33:13;;;;;;;2.88;1.42;;;;;;;23.35;46.32;97196.41;5035540;28;20693;-26
2022/10/04 05:35:57;;;;;;;3.88;1.40;;;;;;;23.41;46.10;97202.72;5035021;28;20025;-26
2022/10/04 05:38:53;;;;;;;3.08;1.25;;;;;;;23.35;46.14;97196.41;5035117;28;20476;-26
2022/10/04 05:41:35;;;;;;;3.72;1.65;;;;;;;23.38;46.27;97198.94;5035126;28;20029;-27
2022/10/04 05:44:01;;;;;;;2.88;1.30;;;;;;;23.32;46.26;97200.91;5035140;28;20105;-26
2022/10/04 05:46:32;;;;;;;2.75;1.50;;;;;;;23.31;46.25;97201.41;5035157;28;20072;-26
2022/10/04 05:49:11;;;;;;;2.95;1.67;;;;;;;23.26;46.27;97214.72;5025421;28;20128;-26
2022/10/04 05:51:53;;;;;;;3.97;1.70;;;;;;;23.40;45.97;97212.28;5029421;28;20056;-27
2022/10/04 05:54:22;;;;;;;4.53;1.25;;;;;;;23.35;46.42;97213.03;5027745;28;20405;-26
2022/10/04 05:57:24;;;;;;;4.85;1.70;;;;;;;23.37;46.13;97221.59;5011392;28;20117;-27
2022/10/04 06:00:13;;;;;;;3.33;1.38;;;;;;;23.32;46.32;97231.38;5012918;28;20400;-27
2022/10/04 06:02:54;;;;;;;1.67;1.35;;;;;;;23.34;46.26;97239.19;5012820;28;20076;-27
2022/10/04 06:05:51;;;;;;;2.60;1.30;;;;;;;23.38;46.29;97242.47;5013083;28;20025;-26
2022/10/04 06:08:31;;;;;;;4.45;1.45;;;;;;;23.47;45.98;97245.06;5012884;28;20470;-26
2022/10/04 06:10:57;;;;;;;2.03;1.48;;;;;;;23.38;46.58;97246.00;5012711;28;20064;-26
2022/10/04 06:13:58;;;;;;;5.32;1.52;;;;;;;23.43;46.13;97239.00;5011265;28;20386;-26
2022/10/04 06:16:45;;;;;;;3.53;1.40;;;;;;;23.40;46.01;97254.56;5012864;28;20041;-26
2022/10/04 06:19:28;;;;;;;3.22;1.40;;;;;;;23.42;46.11;97249.31;5012787;28;20025;-27
2022/10/04 06:22:02;;;;;;;5.95;1.88;;;;;;;23.45;46.34;97247.56;5012692;28;20036;-26
2022/10/04 06:24:37;;;;;;;3.25;1.40;;;;;;;23.43;46.38;97256.34;5012176;28;20037;-26
2022/10/04 06:27:09;;;;;;;2.20;1.17;;;;;;;23.40;46.04;97254.56;5011193;28;20390;-26
2022/10/04 06:29:42;;;;;;;2.40;1.23;;;;;;;23.41;46.40;97261.63;5012579;28;20025;-27
2022/10/04 06:32:27;;;;;;;3.10;1.40;;;;;;;23.39;46.33;97269.66;5011154;28;20073;-26
2022/10/04 06:35:14;;;;;;;2.80;1.27;;;;;;;23.42;46.60;97265.16;5012470;28;20501;-27
2022/10/04 06:37:45;;;;;;;4.22;1.40;;;;;;;23.48;46.19;97274.28;5011929;28;20428;-27
2022/10/04 06:40:24;;;;;;;3.50;1.60;;;;;;;23.49;46.30;97275.78;5012322;28;20409;-27
2022/10/04 06:43:14;;;;;;;3.15;1.20;;;;;;;23.48;46.50;97279.81;5016133;28;20052;-26
2022/10/04 06:46:05;;;;;;;1.95;1.40;;;;;;;23.50;46.35;97278.06;5031951;28;20067;-27
2022/10/04 06:48:46;;;;;;;2.92;1.58;;;;;;;23.51;46.28;97281.59;5031844;28;20049;-26
2022/10/04 06:51:24;;;;;;;3.80;1.60;;;;;;;23.56;46.24;97286.44;5031882;28;20021;-26
2022/10/04 06:54:31;;;;;;;4.85;1.58;;;;;;;23.50;46.26;97288.34;5031972;28;20026;-27
2022/10/04 06:57:47;;;;;;;4.32;2.05;;;;;;;23.54;46.33;97292.47;5029964;28;20211;-27
2022/10/04 07:00:59;;;;;;;4.43;2.20;;;;;;;23.48;46.50;97296.41;5029959;28;20034;-27
2022/10/04 07:03:28;;;;;;;3.90;1.90;;;;;;;23.48;46.39;97313.03;5001409;28;20494;-26
2022/10/04 07:06:04;;;;;;;4.90;2.42;;;;;;;23.53;46.18;97304.03;5030127;28;20041;-26
2022/10/04 07:08:46;;;;;;;3.03;1.80;;;;;;;23.55;46.31;97307.06;5030013;28;20049;-26
2022/10/04 07:11:17;;;;;;;5.22;1.80;;;;;;;23.50;46.12;97316.03;5031311;28;20057;-27
2022/10/04 07:13:56;;;;;;;3.58;2.00;;;;;;;23.57;45.93;97310.88;5031334;28;20367;-26
2022/10/04 07:16:35;;;;;;;5.57;1.55;;;;;;;22.36;48.61;97317.38;5031545;28;20029;-30
2022/10/04 07:19:12;;;;;;;4.38;1.50;;;;;;;22.17;49.12;97316.13;5031110;28;20037;-27
2022/10/04 07:21:52;;;;;;;4.50;1.50;;;;;;;22.61;47.80;97317.94;5031150;28;20025;-28
2022/10/04 07:24:24;;;;;;;3.35;1.08;;;;;;;22.92;46.83;97318.78;5031356;28;20072;-28
2022/10/04 07:26:51;;;;;;;2.65;1.30;;;;;;;23.10;46.61;97323.25;5031529;28;20029;-27
2022/10/04 07:29:27;;;;;;;9.20;1.60;;;;;;;23.15;46.63;97324.53;5014652;28;20030;-29
2022/10/04 07:32:12;;;;;;;3.53;1.17;;;;;;;23.16;46.68;97324.06;5015630;28;20490;-28
2022/10/04 07:34:45;;;;;;;3.40;1.80;;;;;;;23.19;46.40;97323.09;5014162;28;20385;-27
2022/10/04 07:37:13;;;;;;;3.88;1.40;;;;;;;23.31;46.20;97320.41;5017969;28;20025;-27
2022/10/04 07:40:29;;;;;;;5.13;1.45;;;;;;;23.26;46.59;97324.66;5017444;28;20494;-27
2022/10/04 07:43:03;;;;;;;4.63;1.50;;;;;;;23.34;46.30;97333.28;5027164;28;20037;-27
2022/10/04 07:45:36;;;;;;;4.65;1.60;;;;;;;23.43;46.33;97338.66;5017631;28;20528;-28
2022/10/04 07:48:14;;;;;;;4.43;1.67;;;;;;;23.35;46.26;97334.81;5017500;28;20104;-28
2022/10/04 07:50:49;;;;;;;2.30;1.10;;;;;;;23.33;46.53;97334.53;5017449;28;20033;-28
2022/10/04 07:53:23;;;;;;;6.63;1.60;;;;;;;23.45;46.05;97330.63;5017312;28;20034;-27
2022/10/04 07:55:48;;;;;;;4.20;1.52;;;;;;;23.46;46.08;97338.44;5017564;28;20104;-27
2022/10/04 07:58:43;;;;;;;2.83;1.40;;;;;;;23.47;46.17;97339.19;5017274;28;20458;-27
2022/10/04 08:01:14;;;;;;;4.03;1.35;;;;;;;23.38;46.67;97342.13;5020817;28;20389;-28
2022/10/04 08:03:45;;;;;;;4.20;1.58;;;;;;;23.42;46.39;97342.66;5017361;28;20021;-28
2022/10/04 08:06:13;;;;;;;2.88;1.50;;;;;;;23.42;46.68;97345.44;5017068;28;20032;-28
2022/10/04 08:09:00;;;;;;;4.43;1.30;;;;;;;23.41;46.56;97338.38;5016991;28;20030;-27
2022/10/04 08:12:04;;;;;;;3.15;1.30;;;;;;;23.42;46.63;97342.66;5016960;28;20021;-27
2022/10/04 08:14:51;;;;;;;2.60;1.20;;;;;;;23.37;46.72;97349.66;5016884;28;20104;-28
2022/10/04 08:17:32;;;;;;;4.47;1.40;;;;;;;23.36;46.80;97352.94;5016874;28;20022;-28
2022/10/04 08:20:00;;;;;;;2.00;1.52;;;;;;;23.31;47.30;97350.88;5015828;28;20411;-27
2022/10/04 08:22:55;;;;;;;3.22;1.15;;;;;;;23.39;46.74;97355.47;5017030;28;20484;-27
2022/10/04 08:25:28;;;;;;;3.90;1.50;;;;;;;23.46;46.73;97359.81;5018899;28;20113;-28
2022/10/04 08:31:15;;;;;;;1.95;1.15;;;;;;;23.31;47.34;97364.72;5031192;28;20094;-28
2022/10/04 08:33:52;;;;;;;2.90;1.27;;;;;;;23.44;47.05;97362.31;5024648;28;20032;-27
2022/10/04 08:36:42;;;;;;;3.50;1.50;;;;;;;23.41;47.13;97364.03;5017030;28;20097;-27
2022/10/04 08:39:20;;;;;;;5.57;1.42;;;;;;;23.46;47.09;97365.34;5016402;28;20140;-28
2022/10/04 08:42:07;;;;;;;3.00;1.33;;;;;;;23.44;47.22;97367.84;5016448;28;20462;-28
2022/10/04 08:44:41;;;;;;;2.80;1.20;;;;;;;23.44;47.32;97367.84;5016475;28;20026;-28
2022/10/04 08:47:22;;;;;;;3.42;1.52;;;;;;;23.36;47.54;97367.53;5016064;28;20022;-28
2022/10/04 08:50:19;;;;;;;1.40;1.10;;;;;;;23.42;47.12;97371.09;5016302;28;20054;-28
2022/10/04 08:53:01;;;;;;;2.30;1.20;;;;;;;23.29;47.76;97367.97;5016147;28;20022;-27
2022/10/04 08:55:48;;;;;;;3.10;1.45;;;;;;;23.46;47.43;97365.34;5016308;28;20030;-27
2022/10/04 08:58:51;;;;;;;2.85;1.27;;;;;;;23.35;47.53;97370.78;5015519;28;20025;-27
2022/10/04 09:01:35;;;;;;;3.47;1.30;;;;;;;23.40;47.55;97370.06;5014186;28;20757;-28
2022/10/04 09:04:24;;;;;;;3.63;1.20;;;;;;;23.41;47.86;97379.91;5015677;28;20724;-28
2022/10/04 09:07:00;;;;;;;2.35;1.27;;;;;;;23.29;48.04;97376.25;5015848;28;20482;-29
2022/10/04 09:10:00;;;;;;;2.25;1.20;;;;;;;23.31;48.10;97378.53;5015893;28;20425;-27
2022/10/04 09:12:49;;;;;;;2.78;1.30;;;;;;;23.16;48.76;97373.09;5015970;28;20155;-27
2022/10/04 09:15:17;;;;;;;2.55;1.30;;;;;;;23.27;48.23;97371.22;5015872;28;20025;-28
2022/10/04 09:18:02;;;;;;;2.53;1.15;;;;;;;23.15;48.71;97368.81;5015610;28;20075;-27
2022/10/04 09:20:50;;;;;;;2.45;1.10;;;;;;;23.04;49.22;97369.47;5015729;28;20076;-28
2022/10/04 09:23:38;;;;;;;1.92;1.00;;;;;;;23.14;48.61;97365.28;5015844;28;20044;-27
2022/10/04 09:26:20;;;;;;;2.63;1.10;;;;;;;23.41;47.84;97375.13;5015577;28;20060;-28
2022/10/04 09:29:09;;;;;;;2.92;1.30;;;;;;;23.49;47.82;97369.94;5015522;28;20025;-27
2022/10/04 09:31:50;;;;;;;2.83;1.10;;;;;;;23.25;48.66;97373.69;5014074;28;20030;-28
2022/10/04 09:34:37;;;;;;;3.78;1.30;;;;;;;23.05;49.67;97367.47;5015481;28;20033;-27
2022/10/04 09:37:35;;;;;;;3.08;1.20;;;;;;;22.79;50.21;97368.19;5015708;28;20029;-27
2022/10/04 09:40:27;;;;;;;2.35;1.27;;;;;;;23.26;48.78;97368.94;5014999;28;20053;-27
2022/10/04 09:43:34;;;;;;;4.07;1.00;;;;;;;23.21;49.34;97366.88;5014270;28;20034;-28
2022/10/04 09:46:17;;;;;;;3.55;1.20;;;;;;;23.31;48.79;97359.16;5015209;28;20037;-28
2022/10/04 09:49:01;;;;;;;2.67;1.15;;;;;;;23.51;47.94;97370.19;5015169;28;20105;-27
2022/10/04 09:52:00;;;;;;;3.63;1.20;;;;;;;22.82;50.54;97366.47;5015044;28;20057;-27
2022/10/04 09:54:50;;;;;;;2.58;1.10;;;;;;;23.11;49.82;97374.59;5013857;28;20502;-27
2022/10/04 09:57:28;;;;;;;2.13;1.30;;;;;;;23.40;48.48;97364.53;5014088;28;20033;-27
2022/10/04 10:00:09;;;;;;;3.10;1.40;;;;;;;23.51;48.39;97378.50;5014988;28;20025;-27
2022/10/04 10:02:54;;;;;;;2.33;1.10;;;;;;;23.54;47.99;97372.00;5015068;28;20030;-28
2022/10/04 10:05:48;;;;;;;3.83;1.55;;;;;;;23.18;49.38;97365.84;5014856;28;20106;-29
2022/10/04 10:08:34;;;;;;;2.55;1.10;;;;;;;23.45;48.59;97374.91;5012691;28;20535;-27
2022/10/04 10:14:29;;;;;;;3.47;1.58;;;;;;;23.56;48.20;97375.78;5012703;28;20041;-28
2022/10/04 10:17:16;;;;;;;2.08;1.23;;;;;;;23.59;48.10;97374.06;5012772;28;20048;-27
2022/10/04 10:20:03;;;;;;;2.58;1.10;;;;;;;23.49;48.60;97372.69;5012608;28;20038;-27
2022/10/04 10:23:05;;;;;;;4.45;1.30;;;;;;;23.36;48.74;97372.31;5012701;28;20034;-27
2022/10/04 10:26:01;;;;;;;3.15;1.08;;;;;;;23.53;48.43;97371.22;5012692;28;20030;-27
2022/10/04 10:28:50;;;;;;;4.05;1.50;;;;;;;23.58;48.13;97364.22;5012463;28;20040;-27
2022/10/04 10:31:55;;;;;;;2.03;1.02;;;;;;;23.60;48.31;97375.59;5012363;28;20084;-28
2022/10/04 10:34:53;;;;;;;2.03;1.15;;;;;;;23.57;48.46;97368.25;5012334;28;20045;-28
2022/10/04 10:37:56;;;;;;;2.83;1.13;;;;;;;23.58;48.32;97383.63;4934620;29;20066;-27
2022/10/04 10:40:25;;;;;;;1.95;0.93;;;;;;;23.53;48.78;97376.00;4935054;29;20460;-27
2022/10/04 10:43:11;;;;;;;2.35;1.30;;;;;;;23.55;48.40;97379.81;4934586;29;20028;-27
2022/10/04 10:45:39;;;;;;;1.90;1.00;;;;;;;23.60;48.39;97372.81;4947786;29;20106;-27
2022/10/04 10:48:26;;;;;;;1.83;1.10;;;;;;;23.63;48.25;97374.59;4953902;29;20380;-27
2022/10/04 10:51:17;;;;;;;2.58;1.10;;;;;;;23.65;48.31;97380.41;4953549;29;20031;-27
2022/10/04 10:54:20;;;;;;;2.88;1.10;;;;;;;23.64;48.20;97381.63;4953838;29;20083;-27
2022/10/04 10:56:59;;;;;;;2.60;1.35;;;;;;;23.64;48.06;97381.63;4952877;29;20066;-27
2022/10/04 10:59:40;;;;;;;3.97;1.35;;;;;;;23.60;48.51;97370.81;4937708;29;20070;-27
2022/10/04 11:02:42;;;;;;;3.70;1.30;;;;;;;23.68;48.37;97373.88;4953893;28;20595;-27
2022/10/04 11:05:22;;;;;;;2.60;1.03;;;;;;;23.67;48.31;97379.91;4953808;29;20500;-27
2022/10/04 11:08:14;;;;;;;2.70;1.00;;;;;;;23.68;48.42;97379.41;4953507;29;20042;-27
2022/10/04 11:10:55;;;;;;;2.80;1.10;;;;;;;23.68;48.57;97390.50;4936982;29;20508;-28
2022/10/04 11:13:44;;;;;;;1.65;0.90;;;;;;;23.67;48.40;97379.91;4994405;28;20056;-27
2022/10/04 11:16:09;;;;;;;1.98;1.10;;;;;;;23.68;48.37;97390.50;5014082;28;20025;-27
2022/10/04 11:19:20;;;;;;;1.65;1.20;;;;;;;23.69;48.42;97382.94;5013776;28;20022;-27
2022/10/04 11:22:06;;;;;;;2.95;1.00;;;;;;;23.64;48.89;97389.94;5013013;28;20112;-27
2022/10/04 11:25:03;;;;;;;1.73;1.00;;;;;;;23.67;48.59;97374.38;5013821;28;20017;-27
2022/10/04 11:27:44;;;;;;;4.03;1.17;;;;;;;23.64;48.73;97379.63;5013517;28;20038;-27
2022/10/04 11:30:22;;;;;;;2.63;1.40;;;;;;;23.58;49.02;97380.84;5013966;28;20116;-29
2022/10/04 11:33:09;;;;;;;1.98;1.20;;;;;;;23.62;48.85;97384.13;5013437;28;20026;-28
2022/10/04 11:35:43;;;;;;;3.08;1.55;;;;;;;23.62;48.98;97378.59;5013347;28;20030;-29
2022/10/04 11:38:12;;;;;;;2.80;1.00;;;;;;;23.68;48.81;97384.19;5013592;28;20355;-27
2022/10/04 11:40:50;;;;;;;2.65;1.05;;;;;;;23.71;48.64;97375.66;5013455;28;20033;-27
2022/10/04 11:43:57;;;;;;;2.05;1.00;;;;;;;23.74;48.50;97373.94;5013704;28;20026;-27
2022/10/04 11:47:00;;;;;;;2.33;1.25;;;;;;;23.68;48.69;97376.66;5012679;28;20394;-27
2022/10/04 11:49:26;;;;;;;1.77;1.30;;;;;;;23.66;48.58;97368.06;5013649;28;20076;-27
2022/10/04 11:52:18;;;;;;;1.90;1.08;;;;;;;23.66;48.83;97364.53;5013320;28;20026;-27
2022/10/04 11:55:02;;;;;;;2.65;1.20;;;;;;;23.71;48.48;97359.06;5013492;28;20025;-27
2022/10/04 11:58:07;;;;;;;1.73;1.02;;;;;;;23.63;48.99;97364.25;5013265;28;20087;-27
2022/10/04 12:01:00;;;;;;;1.70;1.30;;;;;;;23.60;48.76;97364.50;5013089;28;20129;-27
2022/10/04 12:03:44;;;;;;;1.98;1.08;;;;;;;23.62;48.82;97359.22;5013551;28;20486;-28
2022/10/04 12:06:34;;;;;;;3.47;1.20;;;;;;;23.70;48.67;97357.53;5013704;28;20032;-28
2022/10/04 12:09:38;;;;;;;3.00;1.40;;;;;;;23.72;48.59;97355.03;5013270;28;20108;-27
2022/10/04 12:12:36;;;;;;;2.47;1.20;;;;;;;23.70;48.93;97362.31;5013494;28;20022;-27
2022/10/04 12:15:21;;;;;;;2.75;1.40;;;;;;;23.41;49.89;97364.03;5013171;28;20030;-27
2022/10/04 12:18:05;;;;;;;4.50;1.42;;;;;;;23.23;50.91;97356.84;5013221;28;20100;-27
2022/10/04 12:20:52;;;;;;;2.65;1.10;;;;;;;23.11;51.66;97352.44;5013643;28;20033;-28
2022/10/04 12:23:21;;;;;;;7.97;1.50;;;;;;;23.15;51.19;97347.44;5016901;28;20041;-27
2022/10/04 12:25:58;;;;;;;1.83;1.00;;;;;;;23.28;50.83;97352.59;5016715;28;20184;-27
2022/10/04 12:28:46;;;;;;;2.67;1.30;;;;;;;23.39;50.67;97349.16;5016803;28;20033;-27
2022/10/04 12:31:33;;;;;;;2.22;1.17;;;;;;;23.48;49.78;97352.56;5016513;28;20021;-29
2022/10/04 12:34:23;;;;;;;3.50;1.33;;;;;;;23.62;49.18;97345.38;5015458;28;20022;-28
2022/10/04 12:37:12;;;;;;;3.15;1.45;;;;;;;23.57;49.57;97351.63;5016891;28;20100;-27